sensor_id;sensor_type;location;lat;lon;timestamp;pressure;altitude;pressure_sealevel;temperature;humidity
49044;BME280;34860;48.066;14.124;2024-03-06T00:00:20;96484.78;;;5.82;67.96
49044;BME280;34860;48.066;14.124;2024-03-06T00:03:10;96489.22;;;5.73;68.06
49044;BME280;34860;48.066;14.124;2024-03-06T00:05:59;96493.72;;;5.56;68.54
49044;BME280;34860;48.066;14.124;2024-03-06T00:08:48;96489.88;;;5.46;68.91
49044;BME280;34860;48.066;14.124;2024-03-06T00:11:38;96492.94;;;5.52;68.62
49044;BME280;34860;48.066;14.124;2024-03-06T00:14:28;96494.91;;;5.55;68.47
49044;BME280;34860;48.066;14.124;2024-03-06T00:17:18;96492.53;;;5.57;68.26
49044;BME280;34860;48.066;14.124;2024-03-06T00:20:08;96502.72;;;5.60;68.20
49044;BME280;34860;48.066;14.124;2024-03-06T00:22:58;96496.06;;;5.57;67.83
49044;BME280;34860;48.066;14.124;2024-03-06T00:25:50;96503.31;;;5.37;68.50
49044;BME280;34860;48.066;14.124;2024-03-06T00:28:40;96506.28;;;5.12;69.08
49044;BME280;34860;48.066;14.124;2024-03-06T00:31:32;96496.59;;;4.89;69.88
49044;BME280;34860;48.066;14.124;2024-03-06T00:34:23;96489.94;;;4.83;69.89
49044;BME280;34860;48.066;14.124;2024-03-06T00:37:12;96490.75;;;4.80;69.89
49044;BME280;34860;48.066;14.124;2024-03-06T00:40:01;96489.94;;;4.83;69.98
49044;BME280;34860;48.066;14.124;2024-03-06T00:42:51;96489.50;;;4.91;69.64
49044;BME280;34860;48.066;14.124;2024-03-06T00:45:40;96499.25;;;5.03;69.30
49044;BME280;34860;48.066;14.124;2024-03-06T00:48:29;96496.78;;;5.16;68.87
49044;BME280;34860;48.066;14.124;2024-03-06T00:51:20;96490.84;;;5.25;68.42
49044;BME280;34860;48.066;14.124;2024-03-06T00:54:12;96494.34;;;5.29;68.29
49044;BME280;34860;48.066;14.124;2024-03-06T00:57:03;96491.16;;;5.31;68.27
49044;BME280;34860;48.066;14.124;2024-03-06T00:59:52;96489.19;;;5.35;68.03
49044;BME280;34860;48.066;14.124;2024-03-06T01:02:42;96483.63;;;5.38;67.99
49044;BME280;34860;48.066;14.124;2024-03-06T01:05:31;96473.38;;;5.39;67.96
49044;BME280;34860;48.066;14.124;2024-03-06T01:08:22;96472.97;;;5.40;68.03
49044;BME280;34860;48.066;14.124;2024-03-06T01:11:12;96469.44;;;5.40;68.14
49044;BME280;34860;48.066;14.124;2024-03-06T01:14:02;96469.81;;;5.42;68.10
49044;BME280;34860;48.066;14.124;2024-03-06T01:16:52;96470.97;;;5.44;68.16
49044;BME280;34860;48.066;14.124;2024-03-06T01:19:43;96472.19;;;5.40;68.04
49044;BME280;34860;48.066;14.124;2024-03-06T01:22:34;96471.88;;;5.31;68.05
49044;BME280;34860;48.066;14.124;2024-03-06T01:25:26;96465.69;;;5.19;68.18
49044;BME280;34860;48.066;14.124;2024-03-06T01:28:15;96475.19;;;5.11;68.28
49044;BME280;34860;48.066;14.124;2024-03-06T01:31:05;96470.53;;;5.04;68.31
49044;BME280;34860;48.066;14.124;2024-03-06T01:33:54;96482.75;;;5.00;68.36
49044;BME280;34860;48.066;14.124;2024-03-06T01:36:43;96479.63;;;4.94;68.31
49044;BME280;34860;48.066;14.124;2024-03-06T01:39:32;96481.66;;;4.90;68.29
49044;BME280;34860;48.066;14.124;2024-03-06T01:42:24;96484.50;;;4.72;68.78
49044;BME280;34860;48.066;14.124;2024-03-06T01:45:13;96482.28;;;4.49;69.70
49044;BME280;34860;48.066;14.124;2024-03-06T01:48:03;96482.72;;;4.40;70.13
49044;BME280;34860;48.066;14.124;2024-03-06T01:50:57;96477.59;;;4.42;70.18
49044;BME280;34860;48.066;14.124;2024-03-06T01:53:47;96478.34;;;4.50;69.84
49044;BME280;34860;48.066;14.124;2024-03-06T01:56:38;96481.06;;;4.57;69.39
49044;BME280;34860;48.066;14.124;2024-03-06T01:59:31;96479.47;;;4.60;69.21
49044;BME280;34860;48.066;14.124;2024-03-06T02:02:21;96489.69;;;4.59;68.99
49044;BME280;34860;48.066;14.124;2024-03-06T02:05:12;96492.09;;;4.53;68.78
49044;BME280;34860;48.066;14.124;2024-03-06T02:08:02;96479.56;;;4.45;68.72
49044;BME280;34860;48.066;14.124;2024-03-06T02:10:53;96492.16;;;4.39;68.86
49044;BME280;34860;48.066;14.124;2024-03-06T02:13:43;96486.28;;;4.33;68.76
49044;BME280;34860;48.066;14.124;2024-03-06T02:16:34;96485.13;;;4.31;68.72
49044;BME280;34860;48.066;14.124;2024-03-06T02:19:23;96488.28;;;4.26;68.62
49044;BME280;34860;48.066;14.124;2024-03-06T02:22:15;96479.25;;;4.25;68.78
49044;BME280;34860;48.066;14.124;2024-03-06T02:25:06;96474.53;;;4.26;68.80
49044;BME280;34860;48.066;14.124;2024-03-06T02:27:56;96474.13;;;4.27;68.83
49044;BME280;34860;48.066;14.124;2024-03-06T02:30:49;96470.97;;;4.29;68.80
49044;BME280;34860;48.066;14.124;2024-03-06T02:33:39;96476.47;;;4.29;68.98
49044;BME280;34860;48.066;14.124;2024-03-06T02:36:28;96480.44;;;4.28;68.99
49044;BME280;34860;48.066;14.124;2024-03-06T02:39:19;96480.06;;;4.22;68.96
49044;BME280;34860;48.066;14.124;2024-03-06T02:42:08;96482.44;;;4.16;68.98
49044;BME280;34860;48.066;14.124;2024-03-06T02:44:58;96486.78;;;4.07;69.04
49044;BME280;34860;48.066;14.124;2024-03-06T02:47:48;96471.13;;;3.96;69.14
49044;BME280;34860;48.066;14.124;2024-03-06T02:50:37;96475.44;;;3.90;69.24
49044;BME280;34860;48.066;14.124;2024-03-06T02:53:26;96473.50;;;3.84;69.23
49044;BME280;34860;48.066;14.124;2024-03-06T02:56:18;96475.88;;;3.81;69.32
49044;BME280;34860;48.066;14.124;2024-03-06T02:59:08;96471.19;;;3.78;69.27
49044;BME280;34860;48.066;14.124;2024-03-06T03:01:57;96468.81;;;3.77;69.35
49044;BME280;34860;48.066;14.124;2024-03-06T03:04:46;96464.50;;;3.76;69.33
49044;BME280;34860;48.066;14.124;2024-03-06T03:07:35;96461.75;;;3.76;69.42
49044;BME280;34860;48.066;14.124;2024-03-06T03:10:24;96461.75;;;3.76;69.36
49044;BME280;34860;48.066;14.124;2024-03-06T03:13:15;96455.47;;;3.75;69.60
49044;BME280;34860;48.066;14.124;2024-03-06T03:16:05;96459.78;;;3.73;69.62
49044;BME280;34860;48.066;14.124;2024-03-06T03:18:57;96462.56;;;3.69;69.61
49044;BME280;34860;48.066;14.124;2024-03-06T03:21:46;96462.56;;;3.66;69.66
49044;BME280;34860;48.066;14.124;2024-03-06T03:24:35;96463.75;;;3.64;69.70
49044;BME280;34860;48.066;14.124;2024-03-06T03:27:24;96457.84;;;3.66;69.83
49044;BME280;34860;48.066;14.124;2024-03-06T03:30:16;96455.06;;;3.73;69.85
49044;BME280;34860;48.066;14.124;2024-03-06T03:33:08;96448.00;;;3.79;69.83
49044;BME280;34860;48.066;14.124;2024-03-06T03:35:57;96455.03;;;3.84;69.59
49044;BME280;34860;48.066;14.124;2024-03-06T03:38:47;96451.91;;;3.86;69.82
49044;BME280;34860;48.066;14.124;2024-03-06T03:41:36;96455.81;;;3.88;70.00
49044;BME280;34860;48.066;14.124;2024-03-06T03:44:26;96454.25;;;3.87;69.94
49044;BME280;34860;48.066;14.124;2024-03-06T03:47:17;96455.81;;;3.88;70.01
49044;BME280;34860;48.066;14.124;2024-03-06T03:50:08;96460.53;;;3.88;70.06
49044;BME280;34860;48.066;14.124;2024-03-06T03:53:00;96468.00;;;3.87;70.13
49044;BME280;34860;48.066;14.124;2024-03-06T03:55:49;96468.00;;;3.84;70.33
49044;BME280;34860;48.066;14.124;2024-03-06T03:58:38;96467.25;;;3.83;70.36
49044;BME280;34860;48.066;14.124;2024-03-06T04:01:30;96472.72;;;3.79;70.38
49044;BME280;34860;48.066;14.124;2024-03-06T04:04:21;96469.59;;;3.77;70.49
49044;BME280;34860;48.066;14.124;2024-03-06T04:07:10;96474.69;;;3.72;70.59
49044;BME280;34860;48.066;14.124;2024-03-06T04:10:00;96464.13;;;3.70;70.46
49044;BME280;34860;48.066;14.124;2024-03-06T04:12:49;96467.66;;;3.71;70.58
49044;BME280;34860;48.066;14.124;2024-03-06T04:15:39;96462.94;;;3.68;70.48
49044;BME280;34860;48.066;14.124;2024-03-06T04:18:29;96470.41;;;3.67;70.74
49044;BME280;34860;48.066;14.124;2024-03-06T04:21:20;96470.41;;;3.63;70.60
49044;BME280;34860;48.066;14.124;2024-03-06T04:24:10;96472.00;;;3.64;70.77
49044;BME280;34860;48.066;14.124;2024-03-06T04:26:59;96471.59;;;3.66;70.75
49044;BME280;34860;48.066;14.124;2024-03-06T04:29:48;96472.38;;;3.70;70.67
49044;BME280;34860;48.066;14.124;2024-03-06T04:32:37;96463.34;;;3.70;70.89
49044;BME280;34860;48.066;14.124;2024-03-06T04:35:27;96465.69;;;3.71;70.76
49044;BME280;34860;48.066;14.124;2024-03-06T04:38:18;96464.50;;;3.76;70.96
49044;BME280;34860;48.066;14.124;2024-03-06T04:41:07;96459.78;;;3.80;70.96
49044;BME280;34860;48.066;14.124;2024-03-06T04:43:56;96466.03;;;3.84;71.09
49044;BME280;34860;48.066;14.124;2024-03-06T04:46:49;96464.06;;;3.88;70.99
49044;BME280;34860;48.066;14.124;2024-03-06T04:49:40;96477.44;;;3.90;71.06
49044;BME280;34860;48.066;14.124;2024-03-06T04:52:30;96477.03;;;3.91;71.24
49044;BME280;34860;48.066;14.124;2024-03-06T04:55:21;96475.06;;;3.92;71.29
49044;BME280;34860;48.066;14.124;2024-03-06T04:58:10;96476.22;;;3.91;71.45
49044;BME280;34860;48.066;14.124;2024-03-06T05:00:59;96481.34;;;3.89;71.37
49044;BME280;34860;48.066;14.124;2024-03-06T05:03:48;96486.06;;;3.88;71.53
49044;BME280;34860;48.066;14.124;2024-03-06T05:06:54;96486.84;;;3.89;71.49
49044;BME280;34860;48.066;14.124;2024-03-06T05:10:01;96492.34;;;3.89;71.40
49044;BME280;34860;48.066;14.124;2024-03-06T05:13:08;96495.88;;;3.89;71.49
49044;BME280;34860;48.066;14.124;2024-03-06T05:16:14;96493.91;;;3.90;71.51
49044;BME280;34860;48.066;14.124;2024-03-06T05:19:20;96497.84;;;3.89;71.46
49044;BME280;34860;48.066;14.124;2024-03-06T05:22:27;96494.72;;;3.87;71.49
49044;BME280;34860;48.066;14.124;2024-03-06T05:25:33;96501.38;;;3.86;71.63
49044;BME280;34860;48.066;14.124;2024-03-06T05:28:40;96503.34;;;3.89;71.52
49044;BME280;34860;48.066;14.124;2024-03-06T05:31:47;96503.31;;;3.92;71.32
49044;BME280;34860;48.066;14.124;2024-03-06T05:34:53;96503.34;;;3.96;71.21
49044;BME280;34860;48.066;14.124;2024-03-06T05:38:00;96504.91;;;4.00;71.32
49044;BME280;34860;48.066;14.124;2024-03-06T05:41:07;96510.72;;;4.10;71.12
49044;BME280;34860;48.066;14.124;2024-03-06T05:44:14;96504.03;;;4.14;71.22
49044;BME280;34860;48.066;14.124;2024-03-06T05:47:21;96515.44;;;4.20;70.87
49044;BME280;34860;48.066;14.124;2024-03-06T05:50:28;96512.25;;;4.32;71.15
49044;BME280;34860;48.066;14.124;2024-03-06T05:53:36;96510.59;;;4.46;71.24
49044;BME280;34860;48.066;14.124;2024-03-06T05:56:44;96521.16;;;4.58;71.28
49044;BME280;34860;48.066;14.124;2024-03-06T05:59:52;96525.81;;;4.68;71.48
49044;BME280;34860;48.066;14.124;2024-03-06T06:02:41;96538.34;;;4.77;71.46
49044;BME280;34860;48.066;14.124;2024-03-06T06:05:30;96523.00;;;4.83;71.58
49044;BME280;34860;48.066;14.124;2024-03-06T06:08:19;96526.47;;;4.90;71.71
49044;BME280;34860;48.066;14.124;2024-03-06T06:11:08;96538.63;;;5.00;71.64
49044;BME280;34860;48.066;14.124;2024-03-06T06:13:58;96539.75;;;5.06;71.68
49044;BME280;34860;48.066;14.124;2024-03-06T06:16:50;96544.84;;;5.12;71.93
49044;BME280;34860;48.066;14.124;2024-03-06T06:19:41;96544.06;;;5.11;72.16
49044;BME280;34860;48.066;14.124;2024-03-06T06:22:31;96555.06;;;5.15;72.28
49044;BME280;34860;48.066;14.124;2024-03-06T06:25:20;96560.94;;;5.17;72.37
49044;BME280;34860;48.066;14.124;2024-03-06T06:28:09;96573.91;;;5.20;72.60
49044;BME280;34860;48.066;14.124;2024-03-06T06:30:59;96571.13;;;5.23;72.55
49044;BME280;34860;48.066;14.124;2024-03-06T06:33:49;96566.00;;;5.25;72.52
49044;BME280;34860;48.066;14.124;2024-03-06T06:36:45;96571.06;;;5.31;72.70
49044;BME280;34860;48.066;14.124;2024-03-06T06:39:34;96573.81;;;5.34;72.35
49044;BME280;34860;48.066;14.124;2024-03-06T06:42:23;96573.41;;;5.36;72.53
49044;BME280;34860;48.066;14.124;2024-03-06T06:45:12;96573.78;;;5.38;72.53
49044;BME280;34860;48.066;14.124;2024-03-06T06:48:02;96571.78;;;5.42;72.65
49044;BME280;34860;48.066;14.124;2024-03-06T06:50:53;96563.88;;;5.48;72.61
49044;BME280;34860;48.066;14.124;2024-03-06T06:53:42;96567.78;;;5.54;72.49
49044;BME280;34860;48.066;14.124;2024-03-06T06:56:31;96572.84;;;5.59;72.47
49044;BME280;34860;48.066;14.124;2024-03-06T06:59:21;96581.44;;;5.64;72.38
49044;BME280;34860;48.066;14.124;2024-03-06T07:02:11;96583.41;;;5.68;72.53
49044;BME280;34860;48.066;14.124;2024-03-06T07:05:00;96602.28;;;5.69;72.51
49044;BME280;34860;48.066;14.124;2024-03-06T07:07:53;96593.25;;;5.69;72.67
49044;BME280;34860;48.066;14.124;2024-03-06T07:10:43;96596.78;;;5.69;72.69
49044;BME280;34860;48.066;14.124;2024-03-06T07:13:32;96596.72;;;5.76;72.62
49044;BME280;34860;48.066;14.124;2024-03-06T07:16:21;96595.91;;;5.79;72.54
49044;BME280;34860;48.066;14.124;2024-03-06T07:19:10;96593.13;;;5.83;72.62
49044;BME280;34860;48.066;14.124;2024-03-06T07:21:59;96599.41;;;5.87;72.48
49044;BME280;34860;48.066;14.124;2024-03-06T07:24:50;96602.09;;;5.94;72.63
49044;BME280;34860;48.066;14.124;2024-03-06T07:27:39;96611.09;;;6.02;72.32
49044;BME280;34860;48.066;14.124;2024-03-06T07:30:28;96603.16;;;6.11;72.25
49044;BME280;34860;48.066;14.124;2024-03-06T07:33:18;96616.91;;;6.15;72.15
49044;BME280;34860;48.066;14.124;2024-03-06T07:36:08;96619.63;;;6.18;72.27
49044;BME280;34860;48.066;14.124;2024-03-06T07:38:57;96635.72;;;6.24;72.08
49044;BME280;34860;48.066;14.124;2024-03-06T07:41:48;96625.09;;;6.26;71.89
49044;BME280;34860;48.066;14.124;2024-03-06T07:44:37;96626.22;;;6.32;71.98
49044;BME280;34860;48.066;14.124;2024-03-06T07:47:26;96626.53;;;6.38;71.71
49044;BME280;34860;48.066;14.124;2024-03-06T07:50:15;96628.84;;;6.43;71.70
49044;BME280;34860;48.066;14.124;2024-03-06T07:53:06;96631.16;;;6.48;71.61
49044;BME280;34860;48.066;14.124;2024-03-06T07:55:55;96640.19;;;6.52;71.59
49044;BME280;34860;48.066;14.124;2024-03-06T07:58:46;96643.69;;;6.56;71.46
49044;BME280;34860;48.066;14.124;2024-03-06T08:01:35;96640.06;;;6.63;71.15
49044;BME280;34860;48.066;14.124;2024-03-06T08:04:24;96638.44;;;6.69;71.21
49044;BME280;34860;48.066;14.124;2024-03-06T08:07:14;96644.63;;;6.80;71.28
49044;BME280;34860;48.066;14.124;2024-03-06T08:10:04;96648.50;;;6.86;70.95
49044;BME280;34860;48.066;14.124;2024-03-06T08:12:53;96653.22;;;6.86;70.99
49044;BME280;34860;48.066;14.124;2024-03-06T08:15:44;96653.56;;;6.91;70.87
49044;BME280;34860;48.066;14.124;2024-03-06T08:18:36;96659.38;;;6.97;70.97
49044;BME280;34860;48.066;14.124;2024-03-06T08:21:26;96658.97;;;6.99;70.60
49044;BME280;34860;48.066;14.124;2024-03-06T08:24:18;96671.56;;;7.03;70.71
49044;BME280;34860;48.066;14.124;2024-03-06T08:27:07;96665.66;;;7.01;70.61
49044;BME280;34860;48.066;14.124;2024-03-06T08:29:56;96665.63;;;7.05;70.44
49044;BME280;34860;48.066;14.124;2024-03-06T08:32:47;96673.84;;;7.12;70.28
49044;BME280;34860;48.066;14.124;2024-03-06T08:35:37;96686.00;;;7.18;70.17
49044;BME280;34860;48.066;14.124;2024-03-06T08:38:26;96674.94;;;7.18;70.06
49044;BME280;34860;48.066;14.124;2024-03-06T08:41:15;96688.84;;;7.11;70.04
49044;BME280;34860;48.066;14.124;2024-03-06T08:44:05;96679.13;;;6.99;70.24
49044;BME280;34860;48.066;14.124;2024-03-06T08:46:54;96683.53;;;6.93;70.19
49044;BME280;34860;48.066;14.124;2024-03-06T08:49:45;96692.59;;;6.94;70.15
49044;BME280;34860;48.066;14.124;2024-03-06T08:52:34;96693.88;;;6.85;70.08
49044;BME280;34860;48.066;14.124;2024-03-06T08:55:25;96691.94;;;6.82;70.06
49044;BME280;34860;48.066;14.124;2024-03-06T08:58:16;96681.97;;;6.92;70.00
49044;BME280;34860;48.066;14.124;2024-03-06T09:01:06;96693.72;;;7.00;69.76
49044;BME280;34860;48.066;14.124;2024-03-06T09:03:55;96703.53;;;7.04;69.55
49044;BME280;34860;48.066;14.124;2024-03-06T09:06:47;96697.19;;;7.07;69.71
49044;BME280;34860;48.066;14.124;2024-03-06T09:09:36;96695.59;;;7.06;69.56
49044;BME280;34860;48.066;14.124;2024-03-06T09:12:26;96702.00;;;7.00;69.45
49044;BME280;34860;48.066;14.124;2024-03-06T09:15:15;96704.41;;;6.98;69.57
49044;BME280;34860;48.066;14.124;2024-03-06T09:18:05;96711.06;;;7.00;69.46
49044;BME280;34860;48.066;14.124;2024-03-06T09:20:54;96719.75;;;7.02;69.23
49044;BME280;34860;48.066;14.124;2024-03-06T09:23:45;96710.66;;;7.02;69.19
49044;BME280;34860;48.066;14.124;2024-03-06T09:26:39;96716.19;;;7.02;69.31
49044;BME280;34860;48.066;14.124;2024-03-06T09:29:29;96717.00;;;6.99;69.01
49044;BME280;34860;48.066;14.124;2024-03-06T09:32:18;96716.72;;;6.89;68.93
49044;BME280;34860;48.066;14.124;2024-03-06T09:35:07;96714.03;;;6.82;68.95
49044;BME280;34860;48.066;14.124;2024-03-06T09:37:56;96718.44;;;6.76;68.84
49044;BME280;34860;48.066;14.124;2024-03-06T09:40:47;96710.56;;;6.75;68.77
49044;BME280;34860;48.066;14.124;2024-03-06T09:43:37;96706.56;;;6.79;68.76
49044;BME280;34860;48.066;14.124;2024-03-06T09:46:34;96712.75;;;6.90;68.54
49044;BME280;34860;48.066;14.124;2024-03-06T09:49:24;96712.22;;;7.03;68.21
49044;BME280;34860;48.066;14.124;2024-03-06T09:52:13;96714.13;;;7.09;67.84
49044;BME280;34860;48.066;14.124;2024-03-06T09:55:03;96727.94;;;7.09;67.71
49044;BME280;34860;48.066;14.124;2024-03-06T09:57:54;96728.00;;;7.06;67.52
49044;BME280;34860;48.066;14.124;2024-03-06T10:00:44;96726.41;;;7.05;67.49
49044;BME280;34860;48.066;14.124;2024-03-06T10:03:34;96727.94;;;7.09;67.38
49044;BME280;34860;48.066;14.124;2024-03-06T10:06:23;96731.09;;;7.12;67.28
49044;BME280;34860;48.066;14.124;2024-03-06T10:09:16;96733.00;;;7.18;66.94
49044;BME280;34860;48.066;14.124;2024-03-06T10:12:06;96731.06;;;7.15;66.86
49044;BME280;34860;48.066;14.124;2024-03-06T10:14:57;96735.41;;;7.13;66.82
49044;BME280;34860;48.066;14.124;2024-03-06T10:17:46;96728.75;;;7.10;66.71
49044;BME280;34860;48.066;14.124;2024-03-06T10:20:36;96734.94;;;7.18;66.62
49044;BME280;34860;48.066;14.124;2024-03-06T10:23:25;96734.09;;;7.24;66.35
49044;BME280;34860;48.066;14.124;2024-03-06T10:26:17;96743.06;;;7.32;66.26
49044;BME280;34860;48.066;14.124;2024-03-06T10:29:07;96745.06;;;7.32;66.06
49044;BME280;34860;48.066;14.124;2024-03-06T10:31:58;96730.47;;;7.31;66.12
49044;BME280;34860;48.066;14.124;2024-03-06T10:34:48;96751.72;;;7.38;65.99
49044;BME280;34860;48.066;14.124;2024-03-06T10:37:37;96737.47;;;7.39;65.89
49044;BME280;34860;48.066;14.124;2024-03-06T10:40:30;96747.69;;;7.42;65.95
49044;BME280;34860;48.066;14.124;2024-03-06T10:43:21;96749.25;;;7.43;65.97
49044;BME280;34860;48.066;14.124;2024-03-06T10:46:11;96751.59;;;7.45;65.90
49044;BME280;34860;48.066;14.124;2024-03-06T10:49:03;96757.53;;;7.43;65.78
49044;BME280;34860;48.066;14.124;2024-03-06T10:51:57;96755.59;;;7.44;65.80
49044;BME280;34860;48.066;14.124;2024-03-06T10:54:48;96750.41;;;7.46;65.74
49044;BME280;34860;48.066;14.124;2024-03-06T10:57:38;96764.16;;;7.53;65.84
49044;BME280;34860;48.066;14.124;2024-03-06T11:00:29;96766.78;;;7.64;65.67
49044;BME280;34860;48.066;14.124;2024-03-06T11:03:21;96768.69;;;7.71;65.62
49044;BME280;34860;48.066;14.124;2024-03-06T11:06:12;96767.06;;;7.73;65.61
49044;BME280;34860;48.066;14.124;2024-03-06T11:09:01;96762.69;;;7.76;65.42
49044;BME280;34860;48.066;14.124;2024-03-06T11:11:51;96754.28;;;7.83;65.47
49044;BME280;34860;48.066;14.124;2024-03-06T11:14:41;96757.44;;;7.85;65.37
49044;BME280;34860;48.066;14.124;2024-03-06T11:17:30;96757.88;;;7.80;65.36
49044;BME280;34860;48.066;14.124;2024-03-06T11:20:19;96761.47;;;7.77;65.35
49044;BME280;34860;48.066;14.124;2024-03-06T11:23:11;96759.22;;;7.68;65.34
49044;BME280;34860;48.066;14.124;2024-03-06T11:26:02;96760.06;;;7.65;65.28
49044;BME280;34860;48.066;14.124;2024-03-06T11:28:52;96762.34;;;7.70;65.36
49044;BME280;34860;48.066;14.124;2024-03-06T11:32:03;96760.63;;;7.80;65.18
49044;BME280;34860;48.066;14.124;2024-03-06T11:34:55;96762.16;;;7.85;65.00
49044;BME280;34860;48.066;14.124;2024-03-06T11:37:46;96757.44;;;7.85;65.01
49044;BME280;34860;48.066;14.124;2024-03-06T11:40:43;96755.31;;;7.93;64.98
49044;BME280;34860;48.066;14.124;2024-03-06T11:43:32;96750.94;;;7.95;64.88
49044;BME280;34860;48.066;14.124;2024-03-06T11:46:22;96754.75;;;8.05;64.90
49044;BME280;34860;48.066;14.124;2024-03-06T11:49:16;96753.56;;;8.06;64.74
49044;BME280;34860;48.066;14.124;2024-03-06T11:52:08;96752.34;;;8.07;64.82
49044;BME280;34860;48.066;14.124;2024-03-06T11:54:57;96755.91;;;8.08;64.78
49044;BME280;34860;48.066;14.124;2024-03-06T11:57:48;96751.50;;;8.10;64.64
49044;BME280;34860;48.066;14.124;2024-03-06T12:00:38;96754.69;;;8.09;64.67
49044;BME280;34860;48.066;14.124;2024-03-06T12:03:27;96754.59;;;8.16;64.62
49044;BME280;34860;48.066;14.124;2024-03-06T12:06:16;96754.44;;;8.27;64.42
49044;BME280;34860;48.066;14.124;2024-03-06T12:09:06;96763.28;;;8.42;64.26
49044;BME280;34860;48.066;14.124;2024-03-06T12:11:58;96754.53;;;8.47;63.86
49044;BME280;34860;48.066;14.124;2024-03-06T12:14:57;96755.63;;;8.53;63.80
49044;BME280;34860;48.066;14.124;2024-03-06T12:17:48;96759.00;;;8.64;63.82
49044;BME280;34860;48.066;14.124;2024-03-06T12:20:41;96752.53;;;8.71;63.72
49044;BME280;34860;48.066;14.124;2024-03-06T12:23:33;96752.06;;;8.76;63.14
49044;BME280;34860;48.066;14.124;2024-03-06T12:26:22;96756.22;;;8.88;63.10
49044;BME280;34860;48.066;14.124;2024-03-06T12:29:12;96745.47;;;8.90;63.03
49044;BME280;34860;48.066;14.124;2024-03-06T12:32:03;96748.25;;;8.90;63.03
49044;BME280;34860;48.066;14.124;2024-03-06T12:34:56;96750.66;;;8.88;63.28
49044;BME280;34860;48.066;14.124;2024-03-06T12:37:47;96757.78;;;8.89;63.17
49044;BME280;34860;48.066;14.124;2024-03-06T12:40:36;96753.78;;;8.90;63.04
49044;BME280;34860;48.066;14.124;2024-03-06T12:43:27;96755.44;;;8.87;62.82
49044;BME280;34860;48.066;14.124;2024-03-06T12:46:17;96759.06;;;8.84;63.15
49044;BME280;34860;48.066;14.124;2024-03-06T12:49:08;96755.19;;;8.78;63.25
49044;BME280;34860;48.066;14.124;2024-03-06T12:51:57;96755.69;;;8.73;63.37
49044;BME280;34860;48.066;14.124;2024-03-06T12:54:48;96756.13;;;8.71;63.20
49044;BME280;34860;48.066;14.124;2024-03-06T12:57:37;96755.56;;;8.80;62.95
49044;BME280;34860;48.066;14.124;2024-03-06T13:00:26;96763.59;;;8.95;62.73
49044;BME280;34860;48.066;14.124;2024-03-06T13:03:15;96749.63;;;9.02;62.63
49044;BME280;34860;48.066;14.124;2024-03-06T13:06:06;96751.06;;;9.10;62.66
49044;BME280;34860;48.066;14.124;2024-03-06T13:08:55;96750.63;;;9.12;62.52
49044;BME280;34860;48.066;14.124;2024-03-06T13:11:45;96738.81;;;9.07;62.67
49044;BME280;34860;48.066;14.124;2024-03-06T13:14:35;96736.84;;;9.08;62.63
49044;BME280;34860;48.066;14.124;2024-03-06T13:17:24;96746.72;;;9.09;62.69
49044;BME280;34860;48.066;14.124;2024-03-06T13:20:13;96740.88;;;9.03;62.77
49044;BME280;34860;48.066;14.124;2024-03-06T13:23:04;96754.78;;;9.00;62.55
49044;BME280;34860;48.066;14.124;2024-03-06T13:25:53;96747.28;;;9.00;62.78
49044;BME280;34860;48.066;14.124;2024-03-06T13:28:42;96743.16;;;9.08;62.61
49044;BME280;34860;48.066;14.124;2024-03-06T13:31:33;96743.94;;;9.09;62.46
49044;BME280;34860;48.066;14.124;2024-03-06T13:34:23;96742.16;;;9.19;62.07
49044;BME280;34860;48.066;14.124;2024-03-06T13:37:12;96742.47;;;9.44;61.70
49044;BME280;34860;48.066;14.124;2024-03-06T13:40:02;96745.84;;;9.72;60.98
49044;BME280;34860;48.066;14.124;2024-03-06T13:42:54;96740.69;;;9.91;60.64
49044;BME280;34860;48.066;14.124;2024-03-06T13:45:48;96736.13;;;10.17;60.13
49044;BME280;34860;48.066;14.124;2024-03-06T13:48:37;96736.16;;;10.33;59.70
49044;BME280;34860;48.066;14.124;2024-03-06T13:51:26;96744.88;;;10.15;59.70
49044;BME280;34860;48.066;14.124;2024-03-06T13:54:15;96736.56;;;10.15;59.91
49044;BME280;34860;48.066;14.124;2024-03-06T13:57:07;96739.00;;;10.30;59.82
49044;BME280;34860;48.066;14.124;2024-03-06T13:59:56;96737.09;;;10.43;59.53
49044;BME280;34860;48.066;14.124;2024-03-06T14:02:45;96740.50;;;10.51;59.19
49044;BME280;34860;48.066;14.124;2024-03-06T14:05:35;96736.41;;;10.56;58.98
49044;BME280;34860;48.066;14.124;2024-03-06T14:08:24;96739.53;;;10.58;58.73
49044;BME280;34860;48.066;14.124;2024-03-06T14:11:13;96735.44;;;10.79;58.28
49044;BME280;34860;48.066;14.124;2024-03-06T14:14:04;96734.03;;;11.16;57.64
49044;BME280;34860;48.066;14.124;2024-03-06T14:16:53;96741.34;;;11.26;57.22
49044;BME280;34860;48.066;14.124;2024-03-06T14:19:43;96740.63;;;11.22;57.54
49044;BME280;34860;48.066;14.124;2024-03-06T14:22:33;96742.44;;;11.00;57.88
49044;BME280;34860;48.066;14.124;2024-03-06T14:25:23;96737.97;;;10.73;58.44
49044;BME280;34860;48.066;14.124;2024-03-06T14:28:12;96737.38;;;10.65;58.68
49044;BME280;34860;48.066;14.124;2024-03-06T14:31:03;96735.13;;;10.60;59.04
49044;BME280;34860;48.066;14.124;2024-03-06T14:33:52;96737.72;;;10.51;59.14
49044;BME280;34860;48.066;14.124;2024-03-06T14:36:43;96742.06;;;10.35;59.68
49044;BME280;34860;48.066;14.124;2024-03-06T14:39:32;96740.47;;;10.18;59.85
49044;BME280;34860;48.066;14.124;2024-03-06T14:42:23;96739.22;;;10.03;60.07
49044;BME280;34860;48.066;14.124;2024-03-06T14:45:12;96738.19;;;9.96;60.46
49044;BME280;34860;48.066;14.124;2024-03-06T14:48:03;96735.84;;;9.95;60.46
49044;BME280;34860;48.066;14.124;2024-03-06T14:50:53;96745.53;;;9.87;60.79
49044;BME280;34860;48.066;14.124;2024-03-06T14:53:42;96740.94;;;9.80;60.92
49044;BME280;34860;48.066;14.124;2024-03-06T14:56:31;96740.72;;;9.71;61.01
49044;BME280;34860;48.066;14.124;2024-03-06T14:59:21;96750.03;;;9.60;61.23
49044;BME280;34860;48.066;14.124;2024-03-06T15:02:10;96749.84;;;9.51;61.46
49044;BME280;34860;48.066;14.124;2024-03-06T15:05:02;96745.50;;;9.50;61.74